Time;durP1;ratioP1;P1;durP2;ratioP2;P2;SDS_P1;SDS_P2;PMS_P1;PMS_P2;Temp;Humidity;BMP_temperature;BMP_pressure;BME280_temperature;BME280_humidity;BME280_pressure;Samples;Min_cycle;Max_cycle;Signal;HPM_P1;HPM_P2
2022/04/02 00:01:15;;;;;;;9.45;3.63;;;2.60;69.90;;;;;;5028076;28;20519;-74
2022/04/02 00:03:41;;;;;;;11.68;6.15;;;2.60;69.80;;;;;;5021445;28;20084;-73
2022/04/02 00:06:07;;;;;;;10.57;4.72;;;2.60;70.10;;;;;;5029373;28;20041;-81
2022/04/02 00:08:34;;;;;;;10.93;5.65;;;2.60;70.10;;;;;;5032763;28;20028;-75
2022/04/02 00:11:00;;;;;;;9.73;3.88;;;2.60;70.30;;;;;;5026443;28;20033;-77
2022/04/02 00:13:26;;;;;;;8.25;3.40;;;2.60;70.10;;;;;;5020959;28;20434;-78
2022/04/02 00:15:52;;;;;;;9.02;3.47;;;2.60;70.10;;;;;;5025660;28;20080;-80
2022/04/02 00:18:17;;;;;;;10.55;3.60;;;2.50;70.50;;;;;;5022306;28;20094;-77
2022/04/02 00:20:43;;;;;;;9.48;3.53;;;2.50;70.50;;;;;;5023171;28;20072;-77
2022/04/02 00:25:53;;;;;;;5.63;2.78;;;2.60;70.10;;;;;;5026380;28;20046;-74
2022/04/02 00:28:18;;;;;;;8.02;3.65;;;2.60;69.90;;;;;;5024271;28;20034;-77
2022/04/02 00:30:44;;;;;;;10.02;3.40;;;2.60;70.00;;;;;;5019936;28;20042;-81
2022/04/02 00:33:10;;;;;;;5.80;2.90;;;2.60;70.00;;;;;;5020449;28;20034;-77
2022/04/02 00:35:36;;;;;;;7.72;3.10;;;2.50;70.10;;;;;;5019717;28;20138;-76
2022/04/02 00:38:02;;;;;;;8.68;3.08;;;2.60;70.10;;;;;;5023802;28;20049;-76
2022/04/02 00:40:29;;;;;;;10.10;3.28;;;2.60;69.90;;;;;;5025344;28;20124;-79
2022/04/02 00:42:54;;;;;;;6.53;2.85;;;2.60;69.80;;;;;;5023866;28;20423;-77
2022/04/02 00:45:20;;;;;;;7.97;3.50;;;2.60;69.90;;;;;;5026966;28;20038;-78
2022/04/02 00:47:46;;;;;;;7.55;3.30;;;2.60;69.70;;;;;;5003206;28;20038;-75
2022/04/02 00:50:12;;;;;;;7.70;2.92;;;2.60;70.00;;;;;;5029061;28;20030;-76
2022/04/02 00:52:40;;;;;;;8.82;3.13;;;2.50;70.10;;;;;;5006599;28;20511;-81
2022/04/02 00:55:06;;;;;;;7.18;3.45;;;2.50;70.10;;;;;;5021232;28;20487;-77
2022/04/02 00:57:34;;;;;;;9.48;3.72;;;2.50;70.10;;;;;;5026201;28;20036;-80
2022/04/02 01:00:00;;;;;;;9.38;3.63;;;2.50;70.20;;;;;;5028737;28;20061;-80
2022/04/02 01:02:26;;;;;;;7.68;3.28;;;2.50;70.20;;;;;;5023517;28;20037;-77
2022/04/02 01:04:54;;;;;;;8.32;3.10;;;2.50;70.00;;;;;;5009488;28;20053;-79
2022/04/02 01:07:21;;;;;;;9.85;3.60;;;2.50;70.20;;;;;;5018847;28;20136;-79
2022/04/02 01:09:46;;;;;;;6.57;3.10;;;2.40;70.30;;;;;;5023916;28;20045;-77
2022/04/02 01:12:12;;;;;;;9.40;3.17;;;2.40;70.60;;;;;;5019200;28;20033;-75
2022/04/02 01:14:38;;;;;;;9.00;3.72;;;2.30;70.80;;;;;;5004630;28;20033;-78
2022/04/02 01:17:05;;;;;;;9.93;3.42;;;2.30;70.90;;;;;;5029685;28;20041;-78
2022/04/02 01:19:31;;;;;;;7.47;3.33;;;2.30;71.00;;;;;;5018538;28;20055;-78
2022/04/02 01:21:57;;;;;;;8.05;3.17;;;2.30;71.20;;;;;;5020382;28;20503;-74
2022/04/02 01:24:23;;;;;;;7.68;3.40;;;2.20;71.40;;;;;;5029526;28;20456;-78
2022/04/02 01:26:48;;;;;;;10.20;3.45;;;2.20;71.40;;;;;;5024335;28;20041;-76
2022/04/02 01:29:14;;;;;;;6.95;3.33;;;2.20;71.50;;;;;;5033603;28;20052;-74
2022/04/02 01:31:44;;;;;;;10.85;3.90;;;2.20;71.70;;;;;;5026716;28;20603;-76
2022/04/02 01:34:10;;;;;;;8.02;3.70;;;2.10;71.70;;;;;;5024526;28;20569;-75
2022/04/02 01:36:36;;;;;;;10.98;4.20;;;2.20;71.80;;;;;;5021972;28;20049;-81
2022/04/02 01:39:02;;;;;;;11.32;4.00;;;2.20;71.80;;;;;;5029991;28;20040;-77
2022/04/02 01:41:28;;;;;;;8.38;3.65;;;2.20;71.90;;;;;;5022403;28;20474;-81
2022/04/02 01:43:54;;;;;;;8.60;3.90;;;2.10;72.00;;;;;;5029911;28;20045;-77
2022/04/02 01:46:19;;;;;;;8.68;3.85;;;2.10;72.30;;;;;;5020085;28;20052;-75
2022/04/02 01:48:48;;;;;;;7.43;3.83;;;2.10;72.30;;;;;;5022487;28;20038;-77
2022/04/02 01:51:13;;;;;;;10.40;3.83;;;2.10;72.40;;;;;;5003917;28;20124;-75
2022/04/02 01:53:39;;;;;;;7.63;3.60;;;2.10;72.50;;;;;;5017829;28;20629;-78
2022/04/02 01:56:09;;;;;;;8.93;3.85;;;2.10;72.40;;;;;;4998467;28;20351;-79
2022/04/02 01:58:35;;;;;;;9.35;3.80;;;2.10;72.50;;;;;;5008990;28;20439;-76
2022/04/02 02:01:00;;;;;;;11.63;4.05;;;2.10;72.50;;;;;;5031931;28;20450;-77
2022/04/02 02:03:26;;;;;;;8.55;3.97;;;2.10;72.60;;;;;;5015718;28;20137;-76
2022/04/02 02:05:53;;;;;;;10.07;4.13;;;2.10;72.60;;;;;;5017521;28;20133;-77
2022/04/02 02:08:18;;;;;;;11.65;3.78;;;2.20;72.70;;;;;;5026010;28;20067;-78
2022/04/02 02:10:44;;;;;;;7.15;3.97;;;2.20;72.60;;;;;;5025076;28;20065;-80
2022/04/02 02:13:10;;;;;;;10.90;3.75;;;2.30;72.60;;;;;;5016823;28;20639;-76
2022/04/02 02:15:36;;;;;;;12.05;4.13;;;2.30;72.70;;;;;;5027329;28;20045;-76
2022/04/02 02:18:01;;;;;;;9.23;3.80;;;2.40;72.60;;;;;;5018929;28;20029;-74
2022/04/02 02:20:27;;;;;;;8.90;3.92;;;2.40;72.60;;;;;;5021864;28;20750;-82
2022/04/02 02:22:53;;;;;;;8.40;3.90;;;2.40;72.60;;;;;;5020685;28;20037;-74
2022/04/02 02:25:19;;;;;;;11.88;4.18;;;2.50;72.70;;;;;;5025159;28;20057;-79
2022/04/02 02:27:48;;;;;;;8.43;4.00;;;2.60;72.60;;;;;;5016772;28;20400;-78
2022/04/02 02:30:15;;;;;;;7.70;3.35;;;2.60;72.80;;;;;;5022209;28;20080;-78
2022/04/02 02:32:41;;;;;;;8.95;3.40;;;2.60;73.00;;;;;;5020309;28;20042;-75
2022/04/02 02:38:06;;;;;;;8.27;4.00;;;2.60;72.60;;;;;;5030655;28;20039;-78
2022/04/02 02:40:32;;;;;;;8.15;3.97;;;2.60;72.70;;;;;;5021400;28;20104;-80
2022/04/02 02:42:57;;;;;;;9.52;3.70;;;2.50;72.80;;;;;;5023220;28;20762;-73
2022/04/02 02:45:23;;;;;;;7.93;3.70;;;2.40;73.10;;;;;;5019252;28;20404;-78
2022/04/02 02:47:49;;;;;;;10.57;3.90;;;2.40;73.40;;;;;;5018980;28;20041;-78
2022/04/02 02:50:14;;;;;;;14.68;3.55;;;2.40;73.70;;;;;;5026788;28;20082;-76
2022/04/02 02:52:40;;;;;;;7.03;3.65;;;2.40;73.60;;;;;;5003359;28;20271;-75
2022/04/02 02:55:06;;;;;;;6.28;3.65;;;2.30;73.80;;;;;;5020968;28;20042;-77
2022/04/02 02:57:42;;;;;;;10.77;3.90;;;2.30;73.80;;;;;;5013756;28;20033;-74
2022/04/02 03:00:09;;;;;;;7.88;3.60;;;2.30;73.90;;;;;;5034756;28;20075;-77
2022/04/02 03:02:37;;;;;;;9.98;4.43;;;2.20;74.00;;;;;;5020237;28;20041;-76
2022/04/02 03:05:10;;;;;;;8.90;3.80;;;2.20;74.00;;;;;;5027679;28;20032;-75
2022/04/02 03:07:48;;;;;;;8.95;3.92;;;2.10;74.40;;;;;;5031637;28;20041;-81
2022/04/02 03:10:18;;;;;;;6.68;4.13;;;2.10;74.70;;;;;;5028068;28;20041;-77
2022/04/02 03:12:45;;;;;;;10.88;4.50;;;2.10;74.60;;;;;;5032216;28;20045;-79
2022/04/02 03:15:11;;;;;;;9.43;4.18;;;2.10;75.00;;;;;;5016843;28;20025;-73
2022/04/02 03:17:37;;;;;;;10.05;4.30;;;2.00;75.30;;;;;;5007461;28;20487;-77
2022/04/02 03:20:04;;;;;;;9.30;4.35;;;2.00;75.50;;;;;;5024511;28;20034;-75
2022/04/02 03:22:30;;;;;;;8.73;4.53;;;2.00;75.80;;;;;;5029303;28;20120;-75
2022/04/02 03:24:56;;;;;;;10.88;4.63;;;1.90;76.10;;;;;;5023650;28;20068;-75
2022/04/02 03:27:21;;;;;;;9.32;4.35;;;1.90;76.20;;;;;;5023577;28;20034;-77
2022/04/02 03:29:48;;;;;;;9.25;4.97;;;1.90;76.70;;;;;;5028574;28;20051;-73
2022/04/02 03:32:14;;;;;;;7.72;4.45;;;1.90;76.80;;;;;;5033416;28;20143;-75
2022/04/02 03:34:39;;;;;;;8.80;4.07;;;1.90;77.00;;;;;;5005661;28;20048;-75
2022/04/02 03:37:05;;;;;;;9.55;4.40;;;1.90;77.10;;;;;;5028341;28;20041;-74
2022/04/02 03:39:31;;;;;;;8.73;4.03;;;1.90;77.30;;;;;;5007891;28;20069;-76
2022/04/02 03:41:57;;;;;;;9.43;4.60;;;1.90;77.30;;;;;;5029110;28;20552;-80
2022/04/02 03:44:22;;;;;;;9.60;4.97;;;1.80;77.50;;;;;;5036383;28;20033;-75
2022/04/02 03:49:32;;;;;;;12.05;5.28;;;1.80;77.70;;;;;;5025897;28;20617;-78
2022/04/02 03:51:58;;;;;;;9.70;4.50;;;1.80;77.90;;;;;;5002464;28;20033;-78
2022/04/02 03:54:23;;;;;;;9.20;4.28;;;1.80;78.00;;;;;;5021043;28;20037;-74
2022/04/02 03:56:49;;;;;;;11.45;5.38;;;1.80;78.00;;;;;;5028541;28;20038;-77
2022/04/02 03:59:15;;;;;;;11.50;4.53;;;1.80;78.20;;;;;;5028434;28;20037;-80
2022/04/02 04:01:40;;;;;;;12.45;4.60;;;1.80;78.30;;;;;;5028135;28;20481;-78
2022/04/02 04:04:06;;;;;;;10.10;4.68;;;1.80;78.50;;;;;;5024533;28;20040;-76
2022/04/02 04:06:32;;;;;;;9.80;4.57;;;1.80;78.60;;;;;;5036784;28;20382;-75
2022/04/02 04:08:58;;;;;;;14.02;5.35;;;1.80;78.40;;;;;;5027409;28;20036;-75
2022/04/02 04:11:26;;;;;;;8.80;5.10;;;1.80;78.70;;;;;;5024704;28;20060;-76
2022/04/02 04:13:56;;;;;;;8.50;5.13;;;1.80;78.70;;;;;;5005723;28;21044;-76
2022/04/02 04:16:23;;;;;;;15.45;4.90;;;1.80;78.90;;;;;;5021961;28;20065;-82
2022/04/02 04:18:48;;;;;;;14.32;4.88;;;1.70;79.00;;;;;;5002781;28;20037;-75
2022/04/02 04:21:14;;;;;;;9.93;5.05;;;1.70;79.20;;;;;;5033270;28;20720;-75
2022/04/02 04:23:41;;;;;;;11.50;5.15;;;1.70;79.40;;;;;;5024321;28;20400;-78
2022/04/02 04:26:07;;;;;;;11.73;5.28;;;1.70;79.60;;;;;;5023658;28;20032;-74
2022/04/02 04:28:32;;;;;;;10.13;5.30;;;1.60;79.70;;;;;;5027663;28;20049;-74
2022/04/02 04:30:58;;;;;;;11.38;4.97;;;1.60;79.80;;;;;;5028365;28;20029;-79
2022/04/02 04:33:24;;;;;;;12.25;5.13;;;1.60;79.90;;;;;;5023704;28;20044;-73
2022/04/02 04:35:49;;;;;;;12.45;5.15;;;1.60;80.00;;;;;;5025475;28;20461;-76
2022/04/02 04:38:15;;;;;;;11.73;5.38;;;1.60;80.00;;;;;;5031130;28;20041;-75
2022/04/02 04:40:41;;;;;;;8.93;5.30;;;1.50;80.10;;;;;;5006635;28;20464;-79
2022/04/02 04:43:07;;;;;;;15.40;5.57;;;1.50;80.40;;;;;;5018073;28;20435;-78
2022/04/02 04:45:33;;;;;;;8.70;4.93;;;1.50;80.50;;;;;;5021002;28;20117;-77
2022/04/02 04:47:59;;;;;;;14.30;5.80;;;1.50;80.70;;;;;;5026427;28;20037;-79
2022/04/02 04:50:26;;;;;;;8.23;5.10;;;1.40;80.70;;;;;;5033692;28;20083;-75
2022/04/02 04:52:52;;;;;;;8.95;5.10;;;1.40;80.90;;;;;;5018657;28;20132;-73
2022/04/02 04:55:17;;;;;;;12.18;5.80;;;1.40;80.80;;;;;;5028867;28;20108;-74
2022/04/02 04:57:43;;;;;;;10.35;5.45;;;1.40;80.80;;;;;;5029199;28;20103;-75
2022/04/02 05:00:09;;;;;;;10.55;5.43;;;1.40;80.80;;;;;;5031428;28;20423;-78
2022/04/02 05:02:35;;;;;;;11.02;4.63;;;1.30;80.70;;;;;;5020577;28;20475;-73
2022/04/02 05:05:01;;;;;;;11.85;6.00;;;1.30;80.80;;;;;;5011063;28;20033;-73
2022/04/02 05:07:28;;;;;;;9.15;4.78;;;1.30;80.80;;;;;;5017025;28;20048;-75
2022/04/02 05:09:54;;;;;;;11.27;6.18;;;1.30;80.60;;;;;;5022513;28;20293;-75
2022/04/02 05:12:20;;;;;;;12.85;4.93;;;1.30;80.60;;;;;;5030583;28;20033;-74
2022/04/02 05:14:46;;;;;;;11.75;5.22;;;1.40;80.10;;;;;;5022718;28;20129;-75
2022/04/02 05:17:12;;;;;;;12.55;4.97;;;1.40;79.40;;;;;;5033048;28;20053;-80
2022/04/02 05:19:38;;;;;;;12.10;5.03;;;1.40;78.80;;;;;;5011500;28;20042;-78
2022/04/02 05:22:04;;;;;;;12.13;5.68;;;1.40;78.60;;;;;;5020346;28;20049;-76
2022/04/02 05:24:30;;;;;;;10.27;5.80;;;1.40;78.30;;;;;;5024882;28;20067;-74
2022/04/02 05:26:56;;;;;;;11.77;5.00;;;1.40;78.40;;;;;;5002741;28;20534;-81
2022/04/02 05:29:22;;;;;;;12.13;5.80;;;1.40;78.20;;;;;;5035326;28;20460;-75
2022/04/02 05:31:48;;;;;;;8.30;5.05;;;1.40;78.30;;;;;;5025770;28;20525;-76
2022/04/02 05:34:14;;;;;;;11.15;5.18;;;1.40;78.30;;;;;;5030255;28;20048;-80
2022/04/02 05:36:41;;;;;;;10.10;4.97;;;1.40;77.90;;;;;;5026879;28;20041;-76
2022/04/02 05:39:07;;;;;;;9.95;4.45;;;1.40;77.70;;;;;;5031935;28;20058;-74
2022/04/02 05:41:33;;;;;;;11.43;5.60;;;1.40;77.50;;;;;;5019632;28;20780;-80
2022/04/02 05:43:58;;;;;;;13.68;8.10;;;1.40;77.10;;;;;;5005032;28;20037;-78
2022/04/02 05:46:24;;;;;;;13.95;7.07;;;1.40;77.00;;;;;;5009149;28;20033;-77
2022/04/02 05:48:49;;;;;;;18.88;8.73;;;1.30;76.80;;;;;;5028875;28;20147;-73
2022/04/02 05:51:15;;;;;;;20.63;9.75;;;1.40;76.80;;;;;;5027382;28;20103;-81
2022/04/02 05:53:41;;;;;;;16.98;7.68;;;1.40;76.80;;;;;;5018673;28;20539;-78
2022/04/02 05:56:07;;;;;;;15.15;8.23;;;1.40;76.80;;;;;;5022099;28;20479;-78
2022/04/02 05:58:36;;;;;;;13.32;7.43;;;1.40;76.60;;;;;;5024288;28;20445;-77
2022/04/02 06:01:02;;;;;;;14.13;7.35;;;1.50;76.60;;;;;;5028154;28;20045;-74
2022/04/02 06:03:27;;;;;;;15.48;8.18;;;1.50;76.70;;;;;;5014936;28;20071;-73
2022/04/02 06:05:53;;;;;;;18.08;9.77;;;1.50;76.70;;;;;;5020766;28;20397;-74
2022/04/02 06:08:19;;;;;;;16.05;7.40;;;1.50;76.70;;;;;;5019862;28;20499;-79
2022/04/02 06:10:45;;;;;;;10.27;6.03;;;1.60;76.70;;;;;;5029032;28;20063;-78
2022/04/02 06:13:11;;;;;;;13.68;6.10;;;1.60;76.70;;;;;;5003246;28;20041;-76
2022/04/02 06:15:37;;;;;;;10.50;6.38;;;1.60;76.70;;;;;;5026445;28;20060;-77
2022/04/02 06:18:03;;;;;;;10.52;6.03;;;1.70;76.70;;;;;;5036005;28;20032;-78
2022/04/02 06:20:29;;;;;;;12.18;6.88;;;1.70;76.30;;;;;;5025405;28;20625;-76
2022/04/02 06:22:55;;;;;;;13.95;6.60;;;1.80;76.20;;;;;;5018079;28;20034;-73
2022/04/02 06:25:21;;;;;;;11.23;6.53;;;1.80;75.90;;;;;;5010969;28;20034;-76
2022/04/02 06:27:48;;;;;;;12.25;5.82;;;1.90;75.80;;;;;;5020888;28;20091;-77
2022/04/02 06:30:17;;;;;;;11.18;6.47;;;1.90;75.40;;;;;;5032394;28;20061;-76
2022/04/02 06:32:42;;;;;;;14.50;7.40;;;2.00;75.00;;;;;;5010264;28;20049;-84
2022/04/02 06:35:09;;;;;;;10.52;5.40;;;2.10;74.70;;;;;;5005075;28;20046;-76
2022/04/02 06:37:37;;;;;;;8.80;5.07;;;2.20;74.40;;;;;;4998342;28;20542;-77
2022/04/02 06:40:04;;;;;;;9.55;5.15;;;2.30;74.30;;;;;;5017746;28;20034;-79
2022/04/02 06:42:30;;;;;;;12.15;5.95;;;2.30;74.00;;;;;;5015638;28;20507;-76
2022/04/02 06:44:56;;;;;;;11.85;5.70;;;2.40;73.80;;;;;;5017880;28;20737;-79
2022/04/02 06:47:30;;;;;;;10.52;5.30;;;2.40;73.60;;;;;;5018714;28;20029;-73
2022/04/02 06:49:57;;;;;;;11.25;5.30;;;2.50;72.90;;;;;;5016222;28;20495;-75
2022/04/02 06:52:23;;;;;;;10.57;4.90;;;2.60;72.30;;;;;;5015918;28;20044;-79
2022/04/02 06:54:49;;;;;;;12.77;5.10;;;2.70;71.40;;;;;;5014764;28;20167;-80
2022/04/02 06:57:21;;;;;;;11.13;4.88;;;2.80;71.20;;;;;;5035728;28;20041;-74
2022/04/02 06:59:47;;;;;;;12.05;5.20;;;2.90;70.80;;;;;;5024948;28;20439;-77
2022/04/02 07:02:13;;;;;;;10.13;4.65;;;3.10;70.50;;;;;;5024656;28;20148;-77
2022/04/02 07:04:39;;;;;;;8.80;4.47;;;3.10;69.80;;;;;;5008080;28;20032;-78
2022/04/02 07:07:05;;;;;;;9.52;4.68;;;3.30;68.90;;;;;;5004489;28;20034;-74
2022/04/02 07:09:30;;;;;;;8.57;4.15;;;3.40;69.00;;;;;;5006605;28;20346;-75
2022/04/02 07:11:56;;;;;;;7.40;4.25;;;3.60;68.60;;;;;;5009510;28;20129;-74
2022/04/02 07:14:22;;;;;;;9.98;4.57;;;3.70;67.90;;;;;;4996429;28;20460;-75
2022/04/02 07:16:48;;;;;;;11.40;4.70;;;3.80;67.50;;;;;;5019378;28;20049;-75
2022/04/02 07:19:19;;;;;;;10.20;5.20;;;3.90;67.60;;;;;;5024600;28;20530;-75
2022/04/02 07:21:46;;;;;;;6.60;4.28;;;3.90;66.80;;;;;;5015793;28;20053;-77
2022/04/02 07:24:12;;;;;;;10.05;4.75;;;4.10;66.60;;;;;;5015750;28;20029;-74
2022/04/02 07:26:38;;;;;;;7.45;4.35;;;4.10;66.00;;;;;;5019791;28;20206;-75
2022/04/02 07:29:06;;;;;;;7.15;4.00;;;4.20;65.90;;;;;;5010830;28;20053;-74
2022/04/02 07:31:32;;;;;;;8.85;4.70;;;4.30;64.70;;;;;;5016540;28;20219;-74
2022/04/02 07:33:59;;;;;;;6.25;3.58;;;4.30;64.90;;;;;;5012964;28;20053;-76
2022/04/02 07:36:43;;;;;;;10.43;3.72;;;4.50;63.90;;;;;;5006386;28;20057;-74
2022/04/02 07:39:21;;;;;;;12.25;4.53;;;4.50;63.60;;;;;;5005765;28;20034;-75
2022/04/02 07:42:18;;;;;;;9.27;4.43;;;4.70;62.90;;;;;;5008256;28;20037;-74
2022/04/02 07:44:58;;;;;;;8.38;4.35;;;4.80;62.20;;;;;;5023695;28;20049;-74
2022/04/02 07:47:35;;;;;;;7.75;4.00;;;4.80;61.20;;;;;;5019195;28;20042;-74
2022/04/02 07:50:08;;;;;;;8.65;4.20;;;4.60;60.40;;;;;;4999420;28;20079;-76
2022/04/02 07:52:38;;;;;;;8.18;3.78;;;4.40;61.10;;;;;;4998790;28;20084;-76
2022/04/02 07:55:07;;;;;;;8.30;3.92;;;4.60;60.80;;;;;;5019629;28;20045;-76
2022/04/02 07:57:45;;;;;;;8.07;3.85;;;4.80;60.70;;;;;;5014126;28;20046;-75
2022/04/02 08:00:12;;;;;;;7.35;4.30;;;5.00;61.00;;;;;;5013471;28;20044;-75
2022/04/02 08:02:42;;;;;;;11.85;4.03;;;5.10;60.70;;;;;;5019143;28;20459;-75
2022/04/02 08:05:14;;;;;;;8.32;4.10;;;5.30;60.70;;;;;;5019209;28;20119;-75
2022/04/02 08:07:45;;;;;;;10.13;4.68;;;5.30;60.40;;;;;;5004546;28;20620;-75
2022/04/02 08:10:13;;;;;;;10.98;4.25;;;5.10;59.70;;;;;;5021360;28;20609;-75
2022/04/02 08:12:40;;;;;;;10.57;4.45;;;4.90;60.00;;;;;;5015610;28;20084;-74
2022/04/02 08:15:16;;;;;;;11.00;4.28;;;4.80;59.50;;;;;;5006245;28;20189;-77
2022/04/02 08:17:43;;;;;;;8.77;4.28;;;4.80;59.90;;;;;;5022047;28;20133;-75
2022/04/02 08:20:10;;;;;;;9.90;4.40;;;4.80;60.00;;;;;;5024199;28;20034;-76
2022/04/02 08:22:36;;;;;;;9.82;4.18;;;4.80;59.20;;;;;;5020659;28;20377;-75
2022/04/02 08:25:02;;;;;;;6.82;3.90;;;4.90;59.70;;;;;;4999970;28;20061;-76
2022/04/02 08:27:38;;;;;;;9.10;4.05;;;4.90;59.40;;;;;;5018536;28;20029;-75
2022/04/02 08:30:09;;;;;;;7.93;4.43;;;5.10;58.70;;;;;;5021239;28;20485;-76
2022/04/02 08:33:08;;;;;;;26.63;6.20;;;5.20;58.20;;;;;;5018465;28;20500;-76
2022/04/02 08:35:58;;;;;;;8.48;4.13;;;5.40;58.80;;;;;;5016813;28;20040;-76
2022/04/02 08:38:47;;;;;;;15.95;5.00;;;5.60;57.30;;;;;;5022339;28;20457;-76
2022/04/02 08:41:47;;;;;;;9.02;4.60;;;5.90;56.20;;;;;;5022845;28;20041;-75
2022/04/02 08:44:19;;;;;;;14.90;5.65;;;6.10;56.00;;;;;;5022840;28;20099;-75
2022/04/02 08:47:23;;;;;;;12.32;4.63;;;6.10;55.80;;;;;;5017909;28;20067;-75
2022/04/02 08:50:05;;;;;;;8.10;3.70;;;6.30;53.70;;;;;;5011508;28;20064;-76
2022/04/02 08:52:51;;;;;;;7.90;3.80;;;6.10;54.50;;;;;;5012327;28;20480;-76
2022/04/02 08:55:41;;;;;;;17.67;5.43;;;6.30;52.40;;;;;;5022549;28;20091;-75
2022/04/02 08:58:21;;;;;;;7.43;3.72;;;6.50;52.50;;;;;;5011905;28;20025;-76
2022/04/02 09:00:55;;;;;;;8.02;4.32;;;6.60;51.40;;;;;;5004555;28;20138;-78
2022/04/02 09:03:55;;;;;;;8.90;4.30;;;6.60;53.40;;;;;;5003623;28;20058;-77
2022/04/02 09:06:39;;;;;;;11.45;4.68;;;7.20;52.20;;;;;;5016060;28;20045;-77
2022/04/02 09:09:15;;;;;;;10.37;4.23;;;7.50;51.80;;;;;;5025992;28;20033;-76
2022/04/02 09:11:49;;;;;;;25.27;5.72;;;7.60;50.60;;;;;;5018169;28;20127;-76
2022/04/02 09:14:42;;;;;;;16.95;4.88;;;7.50;49.70;;;;;;5020831;28;20041;-77
2022/04/02 09:17:30;;;;;;;22.17;5.32;;;7.10;48.70;;;;;;5025483;28;20056;-77
2022/04/02 09:20:21;;;;;;;9.27;3.72;;;7.20;48.10;;;;;;5029443;28;20037;-76
2022/04/02 09:23:15;;;;;;;8.70;3.72;;;7.40;47.60;;;;;;4992925;28;20048;-75
2022/04/02 09:25:55;;;;;;;8.90;5.22;;;7.30;46.20;;;;;;5018120;28;20052;-76
2022/04/02 09:28:30;;;;;;;9.00;5.53;;;7.20;48.40;;;;;;5013834;28;20504;-76
2022/04/02 09:31:33;;;;;;;19.70;5.43;;;7.50;48.50;;;;;;5021825;28;20037;-76
2022/04/02 09:34:17;;;;;;;7.88;3.60;;;7.30;48.00;;;;;;5019219;28;20469;-75
2022/04/02 09:36:59;;;;;;;6.63;3.20;;;7.30;47.50;;;;;;5009331;28;20048;-75
2022/04/02 09:39:47;;;;;;;8.00;3.97;;;7.10;47.00;;;;;;5013965;28;20558;-76
2022/04/02 09:42:30;;;;;;;7.45;3.42;;;7.40;47.40;;;;;;5019940;28;20484;-77
2022/04/02 09:45:14;;;;;;;7.35;3.63;;;7.50;49.20;;;;;;5012067;28;20086;-76
2022/04/02 09:48:01;;;;;;;9.75;4.90;;;7.60;47.80;;;;;;5016653;28;20029;-77
2022/04/02 09:50:28;;;;;;;8.27;3.47;;;7.70;47.50;;;;;;5022495;28;20057;-75
2022/04/02 09:53:14;;;;;;;17.42;11.05;;;7.70;46.50;;;;;;5016790;28;20041;-75
2022/04/02 09:56:17;;;;;;;7.57;3.88;;;8.00;45.80;;;;;;5017599;28;20091;-75
2022/04/02 09:59:03;;;;;;;9.50;5.72;;;8.30;44.70;;;;;;5022816;28;20056;-76
2022/04/02 10:01:30;;;;;;;7.53;4.00;;;7.70;46.20;;;;;;5013081;28;20052;-75
2022/04/02 10:04:04;;;;;;;8.75;4.15;;;7.60;47.30;;;;;;5018554;28;20565;-75
2022/04/02 10:06:41;;;;;;;7.60;3.63;;;7.70;48.00;;;;;;5017135;28;20520;-77
2022/04/02 10:09:12;;;;;;;9.10;3.53;;;7.90;47.00;;;;;;5002116;28;20291;-76
2022/04/02 10:11:58;;;;;;;6.90;3.28;;;8.10;46.60;;;;;;5015786;28;20032;-75
2022/04/02 10:14:30;;;;;;;8.73;3.35;;;8.30;45.20;;;;;;5020175;28;20070;-75
2022/04/02 10:16:58;;;;;;;7.95;3.75;;;8.20;44.10;;;;;;5019913;28;20057;-76
2022/04/02 10:19:35;;;;;;;11.05;3.40;;;8.50;45.60;;;;;;5017720;28;20471;-76
2022/04/02 10:22:04;;;;;;;8.23;3.47;;;8.40;45.50;;;;;;5013697;28;20103;-77
2022/04/02 10:24:37;;;;;;;10.70;3.22;;;8.00;44.90;;;;;;5018377;28;20029;-77
2022/04/02 10:27:04;;;;;;;21.00;4.47;;;7.60;42.70;;;;;;4997226;28;20049;-76
2022/04/02 10:29:41;;;;;;;11.40;3.35;;;7.40;42.20;;;;;;5020571;28;20049;-76
2022/04/02 10:32:44;;;;;;;18.80;4.13;;;7.30;42.80;;;;;;5014613;28;20040;-76
2022/04/02 10:35:11;;;;;;;29.98;5.75;;;7.30;44.60;;;;;;5014506;28;20044;-78
2022/04/02 10:37:42;;;;;;;18.30;4.03;;;7.50;43.50;;;;;;5005293;28;20057;-76
2022/04/02 10:40:10;;;;;;;22.63;4.43;;;7.30;42.20;;;;;;4998315;28;20494;-76
2022/04/02 10:43:02;;;;;;;10.02;3.88;;;6.90;43.20;;;;;;4996580;28;20040;-76
2022/04/02 10:45:28;;;;;;;8.25;3.50;;;7.20;44.30;;;;;;5001154;28;20528;-76
2022/04/02 10:48:13;;;;;;;6.05;3.05;;;7.10;44.30;;;;;;5021567;28;20029;-75
2022/04/02 10:50:40;;;;;;;5.55;3.20;;;7.10;45.20;;;;;;5016151;28;20372;-76
2022/04/02 10:53:09;;;;;;;8.10;3.13;;;7.10;45.80;;;;;;5004167;28;20433;-75
2022/04/02 10:55:45;;;;;;;5.63;2.78;;;7.20;45.80;;;;;;5021545;28;20037;-75
2022/04/02 10:58:12;;;;;;;6.38;2.70;;;7.50;44.40;;;;;;4999620;28;20047;-75
2022/04/02 11:00:43;;;;;;;7.65;3.08;;;7.20;44.10;;;;;;5013802;28;20499;-75
2022/04/02 11:03:39;;;;;;;6.78;3.30;;;7.00;45.00;;;;;;5009657;28;20427;-76
2022/04/02 11:06:06;;;;;;;7.85;3.03;;;6.70;45.50;;;;;;5003977;28;20294;-77
2022/04/02 11:08:32;;;;;;;9.05;3.40;;;6.80;45.70;;;;;;5008756;28;20133;-78
2022/04/02 11:11:13;;;;;;;28.23;5.80;;;6.60;45.40;;;;;;5015050;28;20026;-78
2022/04/02 11:13:43;;;;;;;15.20;4.68;;;6.80;46.50;;;;;;5022189;28;20049;-75
2022/04/02 11:16:16;;;;;;;10.50;3.55;;;7.00;46.00;;;;;;5005797;28;20411;-75
2022/04/02 11:19:53;;;;;;;37.65;7.93;;;7.20;46.20;;;;;;5024796;28;20168;-75
2022/04/02 11:21:38;;;;;;;9.00;3.45;;;7.00;45.90;;;;;;5015305;28;20037;-74
2022/04/02 11:24:11;;;;;;;6.82;3.40;;;7.10;47.20;;;;;;5011236;28;20490;-75
2022/04/02 11:26:43;;;;;;;6.32;3.28;;;6.60;46.70;;;;;;5010164;28;20044;-75
2022/04/02 11:29:12;;;;;;;9.27;3.20;;;6.70;47.40;;;;;;5014601;28;20115;-75
2022/04/02 11:31:45;;;;;;;8.20;3.50;;;6.80;47.20;;;;;;4996923;28;20037;-76
2022/04/02 11:34:17;;;;;;;5.88;3.17;;;6.70;48.00;;;;;;5013787;28;20474;-75
2022/04/02 11:36:47;;;;;;;9.93;4.35;;;6.80;48.30;;;;;;5018517;28;20067;-76
2022/04/02 11:39:19;;;;;;;6.70;3.30;;;7.30;49.00;;;;;;5001133;28;20466;-76
2022/04/02 11:41:48;;;;;;;4.78;3.00;;;7.80;46.30;;;;;;5008460;28;20144;-75
2022/04/02 11:44:16;;;;;;;6.63;3.20;;;7.80;44.80;;;;;;5016229;28;20033;-75
2022/04/02 11:46:58;;;;;;;11.77;4.10;;;7.40;45.80;;;;;;5017163;28;20246;-76
2022/04/02 11:49:32;;;;;;;12.23;3.42;;;7.20;45.00;;;;;;5001749;28;20029;-76
2022/04/02 11:52:12;;;;;;;7.43;3.55;;;7.10;46.10;;;;;;5019802;28;20551;-76
2022/04/02 11:54:41;;;;;;;8.23;3.42;;;7.40;47.70;;;;;;5004393;28;20030;-76
2022/04/02 11:57:12;;;;;;;8.98;3.70;;;7.20;46.40;;;;;;5002867;28;20052;-75
2022/04/02 11:59:52;;;;;;;8.30;3.90;;;7.10;46.90;;;;;;5016480;28;20040;-77
2022/04/02 12:02:37;;;;;;;8.70;3.10;;;6.90;46.20;;;;;;5013106;28;20049;-76
2022/04/02 12:05:07;;;;;;;6.85;3.08;;;6.80;45.90;;;;;;5007144;28;20149;-76
2022/04/02 12:07:45;;;;;;;8.48;3.10;;;6.80;46.00;;;;;;5019613;28;20140;-75
2022/04/02 12:10:18;;;;;;;8.90;3.50;;;7.10;46.40;;;;;;4996734;28;20115;-75
2022/04/02 12:12:49;;;;;;;7.82;3.72;;;7.60;46.60;;;;;;5009380;28;20029;-75
2022/04/02 12:15:16;;;;;;;7.07;3.13;;;8.20;44.20;;;;;;5024268;28;20091;-76
2022/04/02 12:17:51;;;;;;;10.70;3.65;;;8.40;43.30;;;;;;5026493;28;20091;-79
2022/04/02 12:20:28;;;;;;;6.47;2.92;;;8.40;42.00;;;;;;5017875;28;20038;-76
2022/04/02 12:23:09;;;;;;;5.05;2.75;;;8.00;39.40;;;;;;5030029;28;20034;-76
2022/04/02 12:25:39;;;;;;;5.93;2.80;;;7.90;40.00;;;;;;5024070;28;20026;-75
2022/04/02 12:28:10;;;;;;;8.63;2.97;;;8.10;39.20;;;;;;5016786;28;20794;-75
2022/04/02 12:30:37;;;;;;;6.10;3.30;;;7.70;39.90;;;;;;4998717;28;20076;-76
2022/04/02 12:33:08;;;;;;;7.13;3.45;;;7.90;41.30;;;;;;4992733;28;20318;-76
2022/04/02 12:35:34;;;;;;;5.38;2.78;;;7.80;41.20;;;;;;5010334;28;20078;-75
2022/04/02 12:38:05;;;;;;;7.35;2.90;;;7.80;41.60;;;;;;5011192;28;20117;-75
2022/04/02 12:40:38;;;;;;;5.32;2.38;;;7.70;37.10;;;;;;4994111;28;20033;-77
2022/04/02 12:43:09;;;;;;;4.95;2.20;;;8.10;37.20;;;;;;5014350;28;20925;-76
2022/04/02 12:45:36;;;;;;;6.57;2.42;;;8.10;38.10;;;;;;5016233;28;20030;-77
2022/04/02 12:48:18;;;;;;;7.00;3.25;;;8.20;37.70;;;;;;5015408;28;20089;-77
2022/04/02 12:50:57;;;;;;;5.88;2.50;;;8.20;37.40;;;;;;5014762;28;20590;-76
2022/04/02 12:53:39;;;;;;;5.93;3.13;;;7.80;37.50;;;;;;5008805;28;20374;-77
2022/04/02 12:56:10;;;;;;;6.43;2.95;;;7.70;37.10;;;;;;5013493;28;20037;-77
2022/04/02 12:58:38;;;;;;;5.57;2.67;;;7.90;38.60;;;;;;5012728;28;20033;-77
2022/04/02 13:01:11;;;;;;;7.80;3.47;;;7.80;39.50;;;;;;5013785;28;20041;-75
2022/04/02 13:03:54;;;;;;;11.63;3.83;;;8.00;40.60;;;;;;5013700;28;20042;-75
2022/04/02 13:06:24;;;;;;;9.02;4.20;;;8.10;40.10;;;;;;5014222;28;20033;-77
2022/04/02 13:08:58;;;;;;;7.57;3.38;;;8.10;39.20;;;;;;5014009;28;20029;-75
2022/04/02 13:11:53;;;;;;;9.73;3.60;;;8.00;40.10;;;;;;5015189;28;20091;-75
2022/04/02 13:14:24;;;;;;;6.70;2.88;;;7.70;38.30;;;;;;4981076;28;20038;-75
2022/04/02 13:16:55;;;;;;;7.28;2.50;;;7.80;38.70;;;;;;5007171;28;20049;-76
2022/04/02 13:22:14;;;;;;;6.10;2.95;;;8.20;37.60;;;;;;5011096;28;20848;-77